sensor_id;sensor_type;location;lat;lon;timestamp;P1;durP1;ratioP1;P2;durP2;ratioP2
57599;SDS011;43426;43.594;24.334;2024-03-08T00:01:48;52.92;;;27.48;;
57599;SDS011;43426;43.594;24.334;2024-03-08T00:04:15;55.60;;;28.20;;
57599;SDS011;43426;43.594;24.334;2024-03-08T00:06:41;47.28;;;27.30;;
57599;SDS011;43426;43.594;24.334;2024-03-08T00:09:06;51.72;;;27.48;;
57599;SDS011;43426;43.594;24.334;2024-03-08T00:11:33;54.22;;;27.88;;
57599;SDS011;43426;43.594;24.334;2024-03-08T00:14:00;49.90;;;27.10;;
57599;SDS011;43426;43.594;24.334;2024-03-08T00:16:25;54.22;;;28.33;;
57599;SDS011;43426;43.594;24.334;2024-03-08T00:18:51;56.83;;;28.83;;
57599;SDS011;43426;43.594;24.334;2024-03-08T00:21:16;54.38;;;29.08;;
57599;SDS011;43426;43.594;24.334;2024-03-08T00:23:42;49.65;;;28.30;;
57599;SDS011;43426;43.594;24.334;2024-03-08T00:26:07;56.03;;;29.40;;
57599;SDS011;43426;43.594;24.334;2024-03-08T00:28:33;51.78;;;27.40;;
57599;SDS011;43426;43.594;24.334;2024-03-08T00:31:01;57.65;;;29.65;;
57599;SDS011;43426;43.594;24.334;2024-03-08T00:33:27;56.08;;;29.40;;
57599;SDS011;43426;43.594;24.334;2024-03-08T00:35:53;60.90;;;30.10;;
57599;SDS011;43426;43.594;24.334;2024-03-08T00:38:19;56.00;;;30.15;;
57599;SDS011;43426;43.594;24.334;2024-03-08T00:40:44;59.88;;;30.58;;
57599;SDS011;43426;43.594;24.334;2024-03-08T00:43:10;58.63;;;30.23;;
57599;SDS011;43426;43.594;24.334;2024-03-08T00:45:36;59.22;;;31.20;;
57599;SDS011;43426;43.594;24.334;2024-03-08T00:48:07;64.13;;;30.83;;
57599;SDS011;43426;43.594;24.334;2024-03-08T00:50:33;56.33;;;30.25;;
57599;SDS011;43426;43.594;24.334;2024-03-08T00:52:59;58.00;;;30.17;;
57599;SDS011;43426;43.594;24.334;2024-03-08T00:55:25;57.88;;;29.55;;
57599;SDS011;43426;43.594;24.334;2024-03-08T00:57:51;55.75;;;30.52;;
57599;SDS011;43426;43.594;24.334;2024-03-08T01:00:18;60.00;;;28.83;;
57599;SDS011;43426;43.594;24.334;2024-03-08T01:02:46;64.20;;;29.92;;
57599;SDS011;43426;43.594;24.334;2024-03-08T01:05:11;58.92;;;30.70;;
57599;SDS011;43426;43.594;24.334;2024-03-08T01:07:37;57.85;;;29.30;;
57599;SDS011;43426;43.594;24.334;2024-03-08T01:10:03;60.78;;;29.20;;
57599;SDS011;43426;43.594;24.334;2024-03-08T01:12:29;56.05;;;28.48;;
57599;SDS011;43426;43.594;24.334;2024-03-08T01:14:55;56.25;;;28.92;;
57599;SDS011;43426;43.594;24.334;2024-03-08T01:17:21;64.78;;;30.27;;
57599;SDS011;43426;43.594;24.334;2024-03-08T01:19:46;53.95;;;28.80;;
57599;SDS011;43426;43.594;24.334;2024-03-08T01:22:12;64.03;;;30.92;;
57599;SDS011;43426;43.594;24.334;2024-03-08T01:24:37;61.20;;;30.15;;
57599;SDS011;43426;43.594;24.334;2024-03-08T01:27:03;57.70;;;29.30;;
57599;SDS011;43426;43.594;24.334;2024-03-08T01:29:29;60.00;;;30.65;;
57599;SDS011;43426;43.594;24.334;2024-03-08T01:31:55;65.10;;;30.95;;
57599;SDS011;43426;43.594;24.334;2024-03-08T01:34:21;58.13;;;30.85;;
57599;SDS011;43426;43.594;24.334;2024-03-08T01:36:48;60.22;;;28.92;;
57599;SDS011;43426;43.594;24.334;2024-03-08T01:39:13;58.97;;;28.42;;
57599;SDS011;43426;43.594;24.334;2024-03-08T01:41:39;58.85;;;30.00;;
57599;SDS011;43426;43.594;24.334;2024-03-08T01:44:05;61.88;;;29.98;;
57599;SDS011;43426;43.594;24.334;2024-03-08T01:46:32;58.67;;;30.48;;
57599;SDS011;43426;43.594;24.334;2024-03-08T01:48:59;61.00;;;29.90;;
57599;SDS011;43426;43.594;24.334;2024-03-08T01:51:26;59.30;;;29.63;;
57599;SDS011;43426;43.594;24.334;2024-03-08T01:53:53;56.88;;;28.65;;
57599;SDS011;43426;43.594;24.334;2024-03-08T01:56:23;62.90;;;29.65;;
57599;SDS011;43426;43.594;24.334;2024-03-08T01:58:50;52.60;;;26.50;;
57599;SDS011;43426;43.594;24.334;2024-03-08T02:01:16;50.63;;;28.45;;
57599;SDS011;43426;43.594;24.334;2024-03-08T02:03:44;52.88;;;27.67;;
57599;SDS011;43426;43.594;24.334;2024-03-08T02:06:12;53.63;;;27.77;;
57599;SDS011;43426;43.594;24.334;2024-03-08T02:08:39;62.15;;;28.48;;
57599;SDS011;43426;43.594;24.334;2024-03-08T02:11:07;50.97;;;25.83;;
57599;SDS011;43426;43.594;24.334;2024-03-08T02:13:32;53.08;;;27.17;;
57599;SDS011;43426;43.594;24.334;2024-03-08T02:18:25;61.05;;;27.85;;
57599;SDS011;43426;43.594;24.334;2024-03-08T02:23:20;54.63;;;28.48;;
57599;SDS011;43426;43.594;24.334;2024-03-08T02:25:49;52.90;;;27.50;;
57599;SDS011;43426;43.594;24.334;2024-03-08T02:28:14;52.28;;;26.73;;
57599;SDS011;43426;43.594;24.334;2024-03-08T02:30:40;59.35;;;28.90;;
57599;SDS011;43426;43.594;24.334;2024-03-08T02:33:06;55.08;;;27.17;;
57599;SDS011;43426;43.594;24.334;2024-03-08T02:35:34;47.50;;;25.52;;
57599;SDS011;43426;43.594;24.334;2024-03-08T02:40:26;55.67;;;28.40;;
57599;SDS011;43426;43.594;24.334;2024-03-08T02:42:51;50.00;;;26.02;;
57599;SDS011;43426;43.594;24.334;2024-03-08T02:45:17;57.17;;;28.80;;
57599;SDS011;43426;43.594;24.334;2024-03-08T02:47:43;58.17;;;28.02;;
57599;SDS011;43426;43.594;24.334;2024-03-08T02:50:08;58.80;;;28.45;;
57599;SDS011;43426;43.594;24.334;2024-03-08T02:52:34;59.05;;;28.20;;
57599;SDS011;43426;43.594;24.334;2024-03-08T02:55:02;55.35;;;28.65;;
57599;SDS011;43426;43.594;24.334;2024-03-08T02:57:30;49.90;;;27.52;;
57599;SDS011;43426;43.594;24.334;2024-03-08T02:59:55;56.15;;;28.58;;
57599;SDS011;43426;43.594;24.334;2024-03-08T03:02:21;57.17;;;28.90;;
57599;SDS011;43426;43.594;24.334;2024-03-08T03:04:48;50.92;;;28.20;;
57599;SDS011;43426;43.594;24.334;2024-03-08T03:07:14;59.20;;;28.63;;
57599;SDS011;43426;43.594;24.334;2024-03-08T03:09:39;59.25;;;28.90;;
57599;SDS011;43426;43.594;24.334;2024-03-08T03:14:36;64.65;;;30.17;;
57599;SDS011;43426;43.594;24.334;2024-03-08T03:17:05;58.63;;;29.23;;
57599;SDS011;43426;43.594;24.334;2024-03-08T03:19:30;61.20;;;29.15;;
57599;SDS011;43426;43.594;24.334;2024-03-08T03:21:56;63.83;;;30.73;;
57599;SDS011;43426;43.594;24.334;2024-03-08T03:24:22;59.30;;;29.92;;
57599;SDS011;43426;43.594;24.334;2024-03-08T03:29:14;60.55;;;30.40;;
57599;SDS011;43426;43.594;24.334;2024-03-08T03:31:41;61.33;;;31.42;;
57599;SDS011;43426;43.594;24.334;2024-03-08T03:34:07;62.72;;;31.52;;
57599;SDS011;43426;43.594;24.334;2024-03-08T03:36:33;62.72;;;32.13;;
57599;SDS011;43426;43.594;24.334;2024-03-08T03:39:00;69.28;;;32.47;;
57599;SDS011;43426;43.594;24.334;2024-03-08T03:41:37;66.50;;;31.55;;
57599;SDS011;43426;43.594;24.334;2024-03-08T03:44:04;62.25;;;31.05;;
57599;SDS011;43426;43.594;24.334;2024-03-08T03:46:32;73.15;;;30.23;;
57599;SDS011;43426;43.594;24.334;2024-03-08T03:48:58;63.22;;;31.40;;
57599;SDS011;43426;43.594;24.334;2024-03-08T03:51:24;56.80;;;28.65;;
57599;SDS011;43426;43.594;24.334;2024-03-08T03:53:50;60.30;;;28.48;;
57599;SDS011;43426;43.594;24.334;2024-03-08T03:56:16;60.03;;;30.50;;
57599;SDS011;43426;43.594;24.334;2024-03-08T03:58:41;58.40;;;29.70;;
57599;SDS011;43426;43.594;24.334;2024-03-08T04:01:07;62.88;;;31.10;;
57599;SDS011;43426;43.594;24.334;2024-03-08T04:03:33;65.40;;;31.70;;
57599;SDS011;43426;43.594;24.334;2024-03-08T04:05:58;59.08;;;29.98;;
57599;SDS011;43426;43.594;24.334;2024-03-08T04:08:24;62.33;;;30.40;;
57599;SDS011;43426;43.594;24.334;2024-03-08T04:10:50;62.90;;;31.42;;
57599;SDS011;43426;43.594;24.334;2024-03-08T04:13:16;57.38;;;30.20;;
57599;SDS011;43426;43.594;24.334;2024-03-08T04:15:41;61.63;;;31.45;;
57599;SDS011;43426;43.594;24.334;2024-03-08T04:18:09;59.83;;;29.63;;
57599;SDS011;43426;43.594;24.334;2024-03-08T04:20:35;57.63;;;31.23;;
57599;SDS011;43426;43.594;24.334;2024-03-08T04:23:01;60.65;;;31.25;;
57599;SDS011;43426;43.594;24.334;2024-03-08T04:25:27;57.70;;;30.98;;
57599;SDS011;43426;43.594;24.334;2024-03-08T04:27:52;67.68;;;31.02;;
57599;SDS011;43426;43.594;24.334;2024-03-08T04:30:18;55.08;;;30.42;;
57599;SDS011;43426;43.594;24.334;2024-03-08T04:32:43;67.13;;;32.47;;
57599;SDS011;43426;43.594;24.334;2024-03-08T04:35:09;64.57;;;32.80;;
57599;SDS011;43426;43.594;24.334;2024-03-08T04:37:34;67.63;;;32.05;;
57599;SDS011;43426;43.594;24.334;2024-03-08T04:40:00;63.67;;;31.60;;
57599;SDS011;43426;43.594;24.334;2024-03-08T04:42:28;62.28;;;32.38;;
57599;SDS011;43426;43.594;24.334;2024-03-08T04:44:56;62.30;;;30.25;;
57599;SDS011;43426;43.594;24.334;2024-03-08T04:47:22;64.53;;;32.88;;
57599;SDS011;43426;43.594;24.334;2024-03-08T04:49:47;70.40;;;32.97;;
57599;SDS011;43426;43.594;24.334;2024-03-08T04:52:13;62.60;;;31.40;;
57599;SDS011;43426;43.594;24.334;2024-03-08T04:54:38;59.03;;;31.45;;
57599;SDS011;43426;43.594;24.334;2024-03-08T04:57:04;73.13;;;34.08;;
57599;SDS011;43426;43.594;24.334;2024-03-08T04:59:30;62.88;;;31.08;;
57599;SDS011;43426;43.594;24.334;2024-03-08T05:01:55;64.50;;;32.53;;
57599;SDS011;43426;43.594;24.334;2024-03-08T05:04:21;65.72;;;30.70;;
57599;SDS011;43426;43.594;24.334;2024-03-08T05:06:47;63.45;;;31.88;;
57599;SDS011;43426;43.594;24.334;2024-03-08T05:11:42;58.35;;;31.58;;
57599;SDS011;43426;43.594;24.334;2024-03-08T05:14:12;65.63;;;32.88;;
57599;SDS011;43426;43.594;24.334;2024-03-08T05:16:45;68.25;;;34.00;;
57599;SDS011;43426;43.594;24.334;2024-03-08T05:19:14;66.18;;;33.70;;
57599;SDS011;43426;43.594;24.334;2024-03-08T05:21:46;64.47;;;32.22;;
57599;SDS011;43426;43.594;24.334;2024-03-08T05:24:13;65.60;;;32.72;;
57599;SDS011;43426;43.594;24.334;2024-03-08T05:26:39;67.10;;;33.72;;
57599;SDS011;43426;43.594;24.334;2024-03-08T05:29:05;67.25;;;34.10;;
57599;SDS011;43426;43.594;24.334;2024-03-08T05:31:36;67.00;;;32.75;;
57599;SDS011;43426;43.594;24.334;2024-03-08T05:34:08;78.45;;;33.50;;
57599;SDS011;43426;43.594;24.334;2024-03-08T05:36:35;66.03;;;32.22;;
57599;SDS011;43426;43.594;24.334;2024-03-08T05:39:00;74.80;;;33.95;;
57599;SDS011;43426;43.594;24.334;2024-03-08T05:41:26;61.35;;;31.05;;
57599;SDS011;43426;43.594;24.334;2024-03-08T05:43:51;69.35;;;33.05;;
57599;SDS011;43426;43.594;24.334;2024-03-08T05:46:17;64.22;;;32.67;;
57599;SDS011;43426;43.594;24.334;2024-03-08T05:48:43;66.38;;;32.08;;
57599;SDS011;43426;43.594;24.334;2024-03-08T05:51:09;76.80;;;33.10;;
57599;SDS011;43426;43.594;24.334;2024-03-08T05:53:34;72.28;;;34.30;;
57599;SDS011;43426;43.594;24.334;2024-03-08T05:56:00;69.95;;;32.70;;
57599;SDS011;43426;43.594;24.334;2024-03-08T05:58:27;66.82;;;32.47;;
57599;SDS011;43426;43.594;24.334;2024-03-08T06:00:55;70.22;;;33.15;;
57599;SDS011;43426;43.594;24.334;2024-03-08T06:03:21;63.60;;;31.90;;
57599;SDS011;43426;43.594;24.334;2024-03-08T06:05:47;69.85;;;33.28;;
57599;SDS011;43426;43.594;24.334;2024-03-08T06:08:16;71.57;;;34.40;;
57599;SDS011;43426;43.594;24.334;2024-03-08T06:10:41;74.15;;;35.33;;
57599;SDS011;43426;43.594;24.334;2024-03-08T06:13:07;71.75;;;34.95;;
57599;SDS011;43426;43.594;24.334;2024-03-08T06:15:32;63.38;;;34.17;;
57599;SDS011;43426;43.594;24.334;2024-03-08T06:17:59;66.30;;;34.33;;
57599;SDS011;43426;43.594;24.334;2024-03-08T06:20:25;63.92;;;31.85;;
57599;SDS011;43426;43.594;24.334;2024-03-08T06:22:51;64.38;;;33.08;;
57599;SDS011;43426;43.594;24.334;2024-03-08T06:25:17;73.03;;;35.45;;
57599;SDS011;43426;43.594;24.334;2024-03-08T06:27:43;66.57;;;34.75;;
57599;SDS011;43426;43.594;24.334;2024-03-08T06:30:09;67.95;;;33.05;;
57599;SDS011;43426;43.594;24.334;2024-03-08T06:32:35;66.80;;;34.53;;
57599;SDS011;43426;43.594;24.334;2024-03-08T06:35:02;65.60;;;32.47;;
57599;SDS011;43426;43.594;24.334;2024-03-08T06:37:31;73.25;;;33.33;;
57599;SDS011;43426;43.594;24.334;2024-03-08T06:42:22;62.30;;;32.53;;
57599;SDS011;43426;43.594;24.334;2024-03-08T06:44:48;69.07;;;32.60;;
57599;SDS011;43426;43.594;24.334;2024-03-08T06:47:16;64.47;;;31.73;;
57599;SDS011;43426;43.594;24.334;2024-03-08T06:49:42;60.22;;;32.63;;
57599;SDS011;43426;43.594;24.334;2024-03-08T06:52:08;63.35;;;32.42;;
57599;SDS011;43426;43.594;24.334;2024-03-08T06:54:35;63.15;;;33.15;;
57599;SDS011;43426;43.594;24.334;2024-03-08T06:59:28;75.20;;;36.80;;
57599;SDS011;43426;43.594;24.334;2024-03-08T07:01:54;76.90;;;39.72;;
57599;SDS011;43426;43.594;24.334;2024-03-08T07:04:20;81.97;;;39.90;;
57599;SDS011;43426;43.594;24.334;2024-03-08T07:06:47;67.00;;;33.15;;
57599;SDS011;43426;43.594;24.334;2024-03-08T07:09:15;68.72;;;35.35;;
57599;SDS011;43426;43.594;24.334;2024-03-08T07:11:44;66.80;;;34.33;;
57599;SDS011;43426;43.594;24.334;2024-03-08T07:14:09;73.90;;;36.47;;
57599;SDS011;43426;43.594;24.334;2024-03-08T07:16:35;68.93;;;35.20;;
57599;SDS011;43426;43.594;24.334;2024-03-08T07:19:01;67.10;;;33.50;;
57599;SDS011;43426;43.594;24.334;2024-03-08T07:21:27;75.38;;;36.10;;
57599;SDS011;43426;43.594;24.334;2024-03-08T07:23:52;67.03;;;32.70;;
57599;SDS011;43426;43.594;24.334;2024-03-08T07:26:34;69.25;;;35.63;;
57599;SDS011;43426;43.594;24.334;2024-03-08T07:29:00;73.50;;;36.50;;
57599;SDS011;43426;43.594;24.334;2024-03-08T07:31:26;71.18;;;35.15;;
57599;SDS011;43426;43.594;24.334;2024-03-08T07:33:51;76.90;;;35.42;;
57599;SDS011;43426;43.594;24.334;2024-03-08T07:36:18;75.07;;;35.88;;
57599;SDS011;43426;43.594;24.334;2024-03-08T07:38:44;76.65;;;35.85;;
57599;SDS011;43426;43.594;24.334;2024-03-08T07:41:12;72.95;;;36.45;;
57599;SDS011;43426;43.594;24.334;2024-03-08T07:46:03;63.00;;;32.45;;
57599;SDS011;43426;43.594;24.334;2024-03-08T07:48:29;63.10;;;33.03;;
57599;SDS011;43426;43.594;24.334;2024-03-08T07:50:55;71.32;;;36.67;;
57599;SDS011;43426;43.594;24.334;2024-03-08T07:53:21;72.80;;;32.97;;
57599;SDS011;43426;43.594;24.334;2024-03-08T07:55:49;66.60;;;35.40;;
57599;SDS011;43426;43.594;24.334;2024-03-08T07:58:15;64.32;;;31.98;;
57599;SDS011;43426;43.594;24.334;2024-03-08T08:00:40;59.15;;;31.98;;
57599;SDS011;43426;43.594;24.334;2024-03-08T08:03:08;66.15;;;33.97;;
57599;SDS011;43426;43.594;24.334;2024-03-08T08:05:34;60.42;;;31.45;;
57599;SDS011;43426;43.594;24.334;2024-03-08T08:08:03;62.70;;;32.85;;
57599;SDS011;43426;43.594;24.334;2024-03-08T08:10:34;59.20;;;30.95;;
57599;SDS011;43426;43.594;24.334;2024-03-08T08:12:59;65.43;;;31.40;;
57599;SDS011;43426;43.594;24.334;2024-03-08T08:15:25;55.65;;;28.83;;
57599;SDS011;43426;43.594;24.334;2024-03-08T08:17:50;58.10;;;29.85;;
57599;SDS011;43426;43.594;24.334;2024-03-08T08:22:43;56.55;;;30.77;;
57599;SDS011;43426;43.594;24.334;2024-03-08T08:25:09;59.10;;;29.45;;
57599;SDS011;43426;43.594;24.334;2024-03-08T08:27:38;63.50;;;31.38;;
57599;SDS011;43426;43.594;24.334;2024-03-08T08:30:05;57.05;;;30.80;;
57599;SDS011;43426;43.594;24.334;2024-03-08T08:32:33;54.40;;;31.10;;
57599;SDS011;43426;43.594;24.334;2024-03-08T08:35:01;56.65;;;30.70;;
57599;SDS011;43426;43.594;24.334;2024-03-08T08:39:53;54.05;;;30.15;;
57599;SDS011;43426;43.594;24.334;2024-03-08T08:42:19;56.88;;;31.55;;
57599;SDS011;43426;43.594;24.334;2024-03-08T08:44:45;71.30;;;35.90;;
57599;SDS011;43426;43.594;24.334;2024-03-08T08:47:11;65.43;;;34.33;;
57599;SDS011;43426;43.594;24.334;2024-03-08T08:49:38;74.93;;;35.35;;
57599;SDS011;43426;43.594;24.334;2024-03-08T08:52:03;72.78;;;35.70;;
57599;SDS011;43426;43.594;24.334;2024-03-08T08:54:29;61.60;;;33.67;;
57599;SDS011;43426;43.594;24.334;2024-03-08T08:56:54;64.13;;;35.88;;
57599;SDS011;43426;43.594;24.334;2024-03-08T08:59:20;68.80;;;35.75;;
57599;SDS011;43426;43.594;24.334;2024-03-08T09:01:48;65.30;;;35.40;;
57599;SDS011;43426;43.594;24.334;2024-03-08T09:04:13;63.97;;;34.25;;
57599;SDS011;43426;43.594;24.334;2024-03-08T09:06:39;69.03;;;34.67;;
57599;SDS011;43426;43.594;24.334;2024-03-08T09:09:06;73.95;;;39.20;;
57599;SDS011;43426;43.594;24.334;2024-03-08T09:11:36;78.85;;;41.83;;
57599;SDS011;43426;43.594;24.334;2024-03-08T09:14:06;82.38;;;43.03;;
57599;SDS011;43426;43.594;24.334;2024-03-08T09:16:32;84.25;;;43.50;;
57599;SDS011;43426;43.594;24.334;2024-03-08T09:18:58;76.13;;;40.60;;
57599;SDS011;43426;43.594;24.334;2024-03-08T09:21:24;79.05;;;40.70;;
57599;SDS011;43426;43.594;24.334;2024-03-08T09:23:51;87.63;;;39.60;;
57599;SDS011;43426;43.594;24.334;2024-03-08T09:26:16;79.50;;;38.85;;
57599;SDS011;43426;43.594;24.334;2024-03-08T09:28:42;77.65;;;40.08;;
57599;SDS011;43426;43.594;24.334;2024-03-08T09:31:07;82.05;;;42.35;;
57599;SDS011;43426;43.594;24.334;2024-03-08T09:33:33;76.55;;;40.08;;
57599;SDS011;43426;43.594;24.334;2024-03-08T09:35:58;75.70;;;40.22;;
57599;SDS011;43426;43.594;24.334;2024-03-08T09:38:24;77.22;;;39.05;;
57599;SDS011;43426;43.594;24.334;2024-03-08T09:40:50;69.70;;;38.17;;
57599;SDS011;43426;43.594;24.334;2024-03-08T09:43:16;78.57;;;40.47;;
57599;SDS011;43426;43.594;24.334;2024-03-08T09:45:43;77.15;;;38.67;;
57599;SDS011;43426;43.594;24.334;2024-03-08T09:48:11;76.25;;;37.53;;
57599;SDS011;43426;43.594;24.334;2024-03-08T09:50:41;79.65;;;39.22;;
57599;SDS011;43426;43.594;24.334;2024-03-08T09:53:08;71.65;;;38.05;;
57599;SDS011;43426;43.594;24.334;2024-03-08T09:55:37;67.93;;;36.00;;
57599;SDS011;43426;43.594;24.334;2024-03-08T09:58:07;69.65;;;35.22;;
57599;SDS011;43426;43.594;24.334;2024-03-08T10:00:41;65.68;;;34.72;;
57599;SDS011;43426;43.594;24.334;2024-03-08T10:03:07;60.05;;;34.05;;
57599;SDS011;43426;43.594;24.334;2024-03-08T10:05:33;73.80;;;35.50;;
57599;SDS011;43426;43.594;24.334;2024-03-08T10:07:59;70.50;;;36.80;;
57599;SDS011;43426;43.594;24.334;2024-03-08T10:10:25;68.07;;;35.95;;
57599;SDS011;43426;43.594;24.334;2024-03-08T10:12:51;62.75;;;36.50;;
57599;SDS011;43426;43.594;24.334;2024-03-08T10:15:17;62.97;;;36.53;;
57599;SDS011;43426;43.594;24.334;2024-03-08T10:17:43;65.50;;;34.85;;
57599;SDS011;43426;43.594;24.334;2024-03-08T10:20:17;60.45;;;34.72;;
57599;SDS011;43426;43.594;24.334;2024-03-08T10:22:44;60.30;;;33.15;;
57599;SDS011;43426;43.594;24.334;2024-03-08T10:27:37;65.70;;;37.50;;
57599;SDS011;43426;43.594;24.334;2024-03-08T10:30:06;66.45;;;35.88;;
57599;SDS011;43426;43.594;24.334;2024-03-08T10:32:35;66.50;;;36.40;;
57599;SDS011;43426;43.594;24.334;2024-03-08T10:35:00;66.03;;;35.90;;
57599;SDS011;43426;43.594;24.334;2024-03-08T10:37:26;81.78;;;38.58;;
57599;SDS011;43426;43.594;24.334;2024-03-08T10:40:02;69.80;;;38.17;;
57599;SDS011;43426;43.594;24.334;2024-03-08T10:42:42;72.60;;;39.30;;
57599;SDS011;43426;43.594;24.334;2024-03-08T10:45:38;72.63;;;37.67;;
57599;SDS011;43426;43.594;24.334;2024-03-08T10:50:57;71.93;;;37.00;;
57599;SDS011;43426;43.594;24.334;2024-03-08T10:53:23;69.10;;;35.83;;
57599;SDS011;43426;43.594;24.334;2024-03-08T10:55:49;68.25;;;37.13;;
57599;SDS011;43426;43.594;24.334;2024-03-08T10:58:18;58.15;;;32.70;;
57599;SDS011;43426;43.594;24.334;2024-03-08T11:00:54;64.85;;;33.92;;
57599;SDS011;43426;43.594;24.334;2024-03-08T11:08:46;65.45;;;34.70;;
57599;SDS011;43426;43.594;24.334;2024-03-08T11:11:25;66.95;;;34.50;;
57599;SDS011;43426;43.594;24.334;2024-03-08T11:13:59;56.38;;;33.15;;
57599;SDS011;43426;43.594;24.334;2024-03-08T11:19:06;61.13;;;33.47;;
57599;SDS011;43426;43.594;24.334;2024-03-08T11:21:35;61.67;;;35.50;;
57599;SDS011;43426;43.594;24.334;2024-03-08T11:24:11;65.63;;;37.33;;
57599;SDS011;43426;43.594;24.334;2024-03-08T11:26:38;68.70;;;36.22;;
57599;SDS011;43426;43.594;24.334;2024-03-08T11:34:35;66.78;;;37.45;;
57599;SDS011;43426;43.594;24.334;2024-03-08T11:37:05;70.57;;;38.35;;
57599;SDS011;43426;43.594;24.334;2024-03-08T11:39:39;70.35;;;39.78;;
57599;SDS011;43426;43.594;24.334;2024-03-08T11:42:05;72.18;;;39.35;;
57599;SDS011;43426;43.594;24.334;2024-03-08T11:44:31;72.35;;;39.25;;
57599;SDS011;43426;43.594;24.334;2024-03-08T11:46:57;68.40;;;36.60;;
57599;SDS011;43426;43.594;24.334;2024-03-08T11:49:23;69.03;;;38.42;;
57599;SDS011;43426;43.594;24.334;2024-03-08T11:51:52;66.80;;;36.78;;
57599;SDS011;43426;43.594;24.334;2024-03-08T11:54:18;72.00;;;38.45;;
57599;SDS011;43426;43.594;24.334;2024-03-08T11:56:44;58.15;;;34.35;;
57599;SDS011;43426;43.594;24.334;2024-03-08T11:59:12;61.40;;;36.00;;
57599;SDS011;43426;43.594;24.334;2024-03-08T12:01:38;61.72;;;34.30;;
57599;SDS011;43426;43.594;24.334;2024-03-08T12:04:04;66.00;;;35.67;;
57599;SDS011;43426;43.594;24.334;2024-03-08T12:06:38;66.00;;;37.88;;
57599;SDS011;43426;43.594;24.334;2024-03-08T12:09:07;73.22;;;39.00;;
57599;SDS011;43426;43.594;24.334;2024-03-08T12:11:38;75.18;;;39.28;;
57599;SDS011;43426;43.594;24.334;2024-03-08T12:14:04;73.57;;;38.00;;
57599;SDS011;43426;43.594;24.334;2024-03-08T12:16:30;77.93;;;37.47;;
57599;SDS011;43426;43.594;24.334;2024-03-08T12:18:57;63.53;;;36.28;;
57599;SDS011;43426;43.594;24.334;2024-03-08T12:21:23;70.70;;;38.38;;
57599;SDS011;43426;43.594;24.334;2024-03-08T12:24:07;67.53;;;37.53;;
57599;SDS011;43426;43.594;24.334;2024-03-08T12:26:37;83.60;;;38.72;;
57599;SDS011;43426;43.594;24.334;2024-03-08T12:31:55;87.57;;;47.67;;
57599;SDS011;43426;43.594;24.334;2024-03-08T12:34:23;77.70;;;43.58;;
57599;SDS011;43426;43.594;24.334;2024-03-08T12:41:43;62.30;;;36.95;;
57599;SDS011;43426;43.594;24.334;2024-03-08T12:44:09;71.35;;;35.95;;
57599;SDS011;43426;43.594;24.334;2024-03-08T12:46:39;58.90;;;35.50;;
57599;SDS011;43426;43.594;24.334;2024-03-08T12:49:10;69.93;;;37.17;;
57599;SDS011;43426;43.594;24.334;2024-03-08T12:51:37;65.55;;;37.40;;
57599;SDS011;43426;43.594;24.334;2024-03-08T12:54:04;61.00;;;35.85;;
57599;SDS011;43426;43.594;24.334;2024-03-08T12:56:32;60.58;;;35.30;;
57599;SDS011;43426;43.594;24.334;2024-03-08T12:58:59;58.75;;;34.13;;
57599;SDS011;43426;43.594;24.334;2024-03-08T13:01:25;63.13;;;33.97;;
57599;SDS011;43426;43.594;24.334;2024-03-08T13:03:57;59.47;;;34.20;;
57599;SDS011;43426;43.594;24.334;2024-03-08T13:06:23;64.03;;;34.92;;
57599;SDS011;43426;43.594;24.334;2024-03-08T13:11:19;57.63;;;32.53;;
57599;SDS011;43426;43.594;24.334;2024-03-08T13:16:10;58.90;;;34.08;;
57599;SDS011;43426;43.594;24.334;2024-03-08T13:18:40;61.72;;;32.63;;
57599;SDS011;43426;43.594;24.334;2024-03-08T13:21:12;59.88;;;33.25;;
57599;SDS011;43426;43.594;24.334;2024-03-08T13:23:39;53.33;;;32.60;;
57599;SDS011;43426;43.594;24.334;2024-03-08T13:26:10;63.30;;;35.47;;
57599;SDS011;43426;43.594;24.334;2024-03-08T13:28:41;61.42;;;34.13;;
57599;SDS011;43426;43.594;24.334;2024-03-08T13:31:22;64.00;;;32.80;;
57599;SDS011;43426;43.594;24.334;2024-03-08T13:33:48;61.88;;;33.63;;
57599;SDS011;43426;43.594;24.334;2024-03-08T13:36:14;61.03;;;34.97;;
57599;SDS011;43426;43.594;24.334;2024-03-08T13:41:09;63.22;;;32.95;;
57599;SDS011;43426;43.594;24.334;2024-03-08T13:43:36;55.50;;;31.83;;
57599;SDS011;43426;43.594;24.334;2024-03-08T13:46:02;58.55;;;33.05;;
57599;SDS011;43426;43.594;24.334;2024-03-08T13:48:28;59.58;;;32.50;;
57599;SDS011;43426;43.594;24.334;2024-03-08T13:50:53;60.25;;;31.85;;
57599;SDS011;43426;43.594;24.334;2024-03-08T13:53:20;50.67;;;31.10;;
57599;SDS011;43426;43.594;24.334;2024-03-08T13:55:46;53.25;;;31.27;;
57599;SDS011;43426;43.594;24.334;2024-03-08T13:58:11;53.08;;;30.70;;
57599;SDS011;43426;43.594;24.334;2024-03-08T14:00:39;60.45;;;32.03;;
57599;SDS011;43426;43.594;24.334;2024-03-08T14:03:06;59.38;;;34.28;;
57599;SDS011;43426;43.594;24.334;2024-03-08T14:05:32;57.13;;;33.05;;
57599;SDS011;43426;43.594;24.334;2024-03-08T14:08:00;53.92;;;33.90;;
57599;SDS011;43426;43.594;24.334;2024-03-08T14:10:28;54.80;;;31.15;;
57599;SDS011;43426;43.594;24.334;2024-03-08T14:12:56;53.88;;;32.70;;
57599;SDS011;43426;43.594;24.334;2024-03-08T14:15:25;49.75;;;29.67;;
57599;SDS011;43426;43.594;24.334;2024-03-08T14:17:54;48.58;;;31.42;;
57599;SDS011;43426;43.594;24.334;2024-03-08T14:20:20;52.30;;;31.70;;
57599;SDS011;43426;43.594;24.334;2024-03-08T14:22:50;58.33;;;32.35;;
57599;SDS011;43426;43.594;24.334;2024-03-08T14:25:17;51.97;;;30.98;;
57599;SDS011;43426;43.594;24.334;2024-03-08T14:27:45;56.42;;;33.40;;
57599;SDS011;43426;43.594;24.334;2024-03-08T14:30:12;58.58;;;34.25;;
57599;SDS011;43426;43.594;24.334;2024-03-08T14:32:38;57.15;;;33.28;;
57599;SDS011;43426;43.594;24.334;2024-03-08T14:35:04;59.85;;;32.97;;
57599;SDS011;43426;43.594;24.334;2024-03-08T14:37:31;58.20;;;33.13;;
57599;SDS011;43426;43.594;24.334;2024-03-08T14:39:56;52.95;;;30.55;;
57599;SDS011;43426;43.594;24.334;2024-03-08T14:42:22;47.78;;;29.83;;
57599;SDS011;43426;43.594;24.334;2024-03-08T14:44:48;53.80;;;32.10;;
57599;SDS011;43426;43.594;24.334;2024-03-08T14:47:17;57.40;;;32.55;;
57599;SDS011;43426;43.594;24.334;2024-03-08T14:49:42;60.53;;;32.58;;
57599;SDS011;43426;43.594;24.334;2024-03-08T14:52:08;53.78;;;33.35;;
57599;SDS011;43426;43.594;24.334;2024-03-08T14:54:52;62.40;;;34.05;;
57599;SDS011;43426;43.594;24.334;2024-03-08T14:57:18;59.05;;;33.72;;
57599;SDS011;43426;43.594;24.334;2024-03-08T14:59:44;53.38;;;32.15;;
57599;SDS011;43426;43.594;24.334;2024-03-08T15:02:11;60.00;;;33.05;;
57599;SDS011;43426;43.594;24.334;2024-03-08T15:04:36;58.28;;;33.97;;
57599;SDS011;43426;43.594;24.334;2024-03-08T15:07:05;61.08;;;34.40;;
57599;SDS011;43426;43.594;24.334;2024-03-08T15:09:36;58.90;;;35.15;;